createdAt,value
2022-09-14T00:04:20.798Z,16.30
2022-09-14T00:09:26.216Z,16.30
2022-09-14T00:14:31.818Z,16.40
2022-09-14T00:19:35.053Z,16.60
2022-09-14T00:24:38.269Z,20.20
2022-09-14T00:29:43.164Z,16.70
2022-09-14T00:34:46.416Z,16.60
2022-09-14T00:39:49.852Z,16.60
2022-09-14T00:45:03.876Z,16.50
2022-09-14T00:50:08.431Z,15.50
2022-09-14T00:55:13.850Z,16.40
2022-09-14T01:00:22.588Z,16.40
2022-09-14T01:05:34.015Z,16.40
2022-09-14T01:10:59.092Z,16.30
2022-09-14T01:16:12.954Z,16.20
2022-09-14T01:21:20.966Z,18.40
2022-09-14T01:26:44.322Z,16.20
2022-09-14T01:31:55.317Z,16.20
2022-09-14T01:37:02.465Z,16.10
2022-09-14T01:42:06.452Z,16.30
2022-09-14T01:47:16.292Z,16.20
2022-09-14T01:52:24.791Z,16.20
2022-09-14T01:57:32.642Z,16.20
2022-09-14T02:02:41.562Z,16.20
2022-09-14T02:07:45.378Z,16.20
2022-09-14T02:12:48.703Z,16.20
2022-09-14T02:17:54.346Z,16.20
2022-09-14T02:22:57.567Z,16.30
2022-09-14T02:28:00.989Z,16.30
2022-09-14T02:33:12.339Z,16.50
2022-09-14T02:38:23.090Z,16.50
2022-09-14T02:43:36.526Z,16.40
2022-09-14T02:48:45.590Z,16.40
2022-09-14T02:53:52.701Z,16.50
2022-09-14T02:58:55.943Z,16.50
2022-09-14T03:04:00.512Z,16.50
2022-09-14T03:09:03.767Z,16.50
2022-09-14T03:14:07.089Z,16.30
2022-09-14T03:19:12.402Z,16.40
2022-09-14T03:24:15.766Z,16.50
2022-09-14T03:29:19.191Z,16.40
2022-09-14T03:34:23.944Z,16.50
2022-09-14T03:39:27.541Z,16.50
2022-09-14T03:44:31.049Z,16.30
2022-09-14T03:49:35.728Z,16.10
2022-09-14T03:54:38.965Z,16.10
2022-09-14T03:59:43.837Z,16.00
2022-09-14T04:04:48.642Z,15.80
2022-09-14T04:09:51.874Z,15.70
2022-09-14T04:14:55.165Z,15.80
2022-09-14T04:19:59.844Z,15.80
2022-09-14T04:25:03.169Z,16.10
2022-09-14T04:30:07.825Z,16.20
2022-09-14T04:35:12.533Z,16.10
2022-09-14T04:40:15.881Z,16.00
2022-09-14T04:45:19.146Z,12.30
2022-09-14T04:50:23.781Z,15.90
2022-09-14T04:55:29.131Z,15.80
2022-09-14T05:00:37.392Z,15.80
2022-09-14T05:05:44.861Z,15.60
2022-09-14T05:10:48.328Z,16.50
2022-09-14T05:15:52.145Z,15.60
2022-09-14T05:20:56.764Z,15.80
2022-09-14T05:26:00.452Z,15.80
2022-09-14T05:31:06.071Z,15.90
2022-09-14T05:36:11.335Z,16.00
2022-09-14T05:41:16.274Z,16.10
2022-09-14T05:46:21.318Z,16.00
2022-09-14T05:51:28.192Z,16.00
2022-09-14T05:56:32.722Z,15.70
2022-09-14T06:01:36.112Z,15.90
2022-09-14T06:06:40.733Z,15.80
2022-09-14T06:11:44.841Z,15.50
2022-09-14T06:16:48.216Z,15.40
2022-09-14T06:21:52.810Z,15.40
2022-09-14T06:26:55.991Z,15.30
2022-09-14T06:31:59.238Z,15.30
2022-09-14T06:37:04.090Z,15.40
2022-09-14T06:42:07.628Z,15.50
2022-09-14T06:47:15.157Z,15.40
2022-09-14T06:52:19.802Z,15.50
2022-09-14T06:57:23.064Z,15.70
2022-09-14T07:02:26.352Z,15.70
2022-09-14T07:07:31.045Z,15.80
2022-09-14T07:12:34.260Z,15.90
2022-09-14T07:17:37.517Z,15.90
2022-09-14T07:22:42.184Z,15.80
2022-09-14T07:27:45.420Z,15.70
2022-09-14T07:32:48.626Z,15.70
2022-09-14T07:37:53.378Z,15.80
2022-09-14T07:42:57.773Z,16.20
2022-09-14T07:48:01.098Z,16.20
2022-09-14T07:53:05.732Z,16.20
2022-09-14T07:58:09.222Z,16.50
2022-09-14T08:03:12.445Z,16.60
2022-09-14T08:08:17.082Z,16.70
2022-09-14T08:13:20.281Z,16.90
2022-09-14T08:18:23.485Z,17.40
2022-09-14T08:23:28.127Z,16.90
2022-09-14T08:28:31.509Z,17.00
2022-09-14T08:33:35.640Z,17.00
2022-09-14T08:38:40.654Z,17.20
2022-09-14T08:43:44.149Z,17.30
2022-09-14T08:48:49.805Z,16.90
2022-09-14T08:53:57.222Z,17.40
2022-09-14T08:59:16.781Z,17.90
2022-09-14T09:04:31.446Z,18.10
2022-09-14T09:09:44.007Z,18.60
2022-09-14T09:14:52.803Z,17.80
2022-09-14T09:20:03.801Z,18.20
2022-09-14T09:25:17.194Z,19.40
2022-09-14T09:30:20.415Z,18.90
2022-09-14T09:35:25.689Z,18.80
2022-09-14T09:40:49.714Z,20.10
2022-09-14T09:45:58.735Z,19.90
2022-09-14T09:51:09.045Z,20.10
2022-09-14T09:56:21.905Z,20.40
2022-09-14T10:01:34.535Z,21.10
2022-09-14T10:06:48.873Z,20.90
2022-09-14T10:12:00.633Z,20.70
2022-09-14T10:17:08.977Z,21.10
2022-09-14T10:22:25.666Z,21.60
2022-09-14T10:27:38.327Z,21.70
2022-09-14T10:32:44.569Z,22.20
2022-09-14T10:38:06.558Z,21.60
2022-09-14T10:43:16.782Z,21.70
2022-09-14T10:48:43.661Z,21.60
2022-09-14T10:53:55.972Z,22.10
2022-09-14T10:59:20.299Z,22.20
2022-09-14T11:04:59.495Z,22.60
2022-09-14T11:10:13.006Z,23.00
2022-09-14T11:15:28.500Z,23.50
2022-09-14T11:20:43.003Z,23.60
2022-09-14T11:25:49.120Z,23.20
2022-09-14T11:30:57.726Z,23.40
2022-09-14T11:36:05.964Z,23.20
2022-09-14T11:41:19.025Z,23.40
2022-09-14T11:46:28.688Z,24.10
2022-09-14T11:51:37.527Z,25.30
2022-09-14T11:56:40.956Z,25.50
2022-09-14T12:01:45.546Z,25.80
2022-09-14T12:06:56.286Z,26.70
2022-09-14T12:12:00.476Z,27.10
2022-09-14T12:17:38.369Z,27.10
2022-09-14T12:22:40.755Z,26.00
2022-09-14T12:27:44.858Z,26.10
2022-09-14T12:32:49.569Z,26.40
2022-09-14T12:37:52.828Z,25.20
2022-09-14T12:42:56.096Z,25.20
2022-09-14T12:48:00.703Z,25.70
2022-09-14T12:53:24.826Z,26.30
2022-09-14T12:59:00.424Z,24.70
2022-09-14T13:04:06.134Z,25.70
2022-09-14T13:09:19.489Z,25.20
2022-09-14T13:14:25.392Z,24.40
2022-09-14T13:19:31.956Z,24.70
2022-09-14T13:24:44.046Z,24.20
2022-09-14T13:29:47.680Z,24.30
2022-09-14T13:34:53.106Z,24.20
2022-09-14T13:40:03.549Z,24.20
2022-09-14T13:45:08.746Z,24.30
2022-09-14T13:50:15.963Z,24.40
2022-09-14T13:55:24.511Z,24.50
2022-09-14T14:00:27.936Z,25.20
2022-09-14T14:05:34.303Z,25.50
2022-09-14T14:10:41.236Z,25.80
2022-09-14T14:15:44.871Z,25.20
2022-09-14T14:20:49.491Z,24.90
2022-09-14T14:25:55.922Z,25.50
2022-09-14T14:31:07.825Z,26.50
2022-09-14T14:36:13.222Z,26.10
2022-09-14T14:41:18.453Z,26.00
2022-09-14T14:46:21.734Z,25.60
2022-09-14T14:51:26.368Z,25.00
2022-09-14T14:56:29.735Z,24.60
2022-09-14T15:01:33.033Z,23.80
2022-09-14T15:06:38.014Z,27.70
2022-09-14T15:11:41.716Z,23.40
2022-09-14T15:16:46.124Z,23.30
2022-09-14T15:21:50.789Z,23.50
2022-09-14T15:26:54.249Z,23.20
2022-09-14T15:31:57.515Z,23.00
2022-09-14T15:37:02.146Z,22.10
2022-09-14T15:42:05.857Z,23.20
2022-09-14T15:47:09.130Z,23.30
2022-09-14T15:52:13.917Z,23.00
2022-09-14T15:57:17.210Z,22.90
2022-09-14T16:02:21.207Z,22.80
2022-09-14T16:07:25.917Z,22.30
2022-09-14T16:12:30.995Z,21.90
2022-09-14T16:17:34.496Z,21.50
2022-09-14T16:22:39.105Z,21.60
2022-09-14T16:27:42.743Z,21.50
2022-09-14T16:32:46.468Z,21.40
2022-09-14T16:37:51.053Z,21.30
2022-09-14T16:42:54.266Z,21.40
2022-09-14T16:47:57.511Z,20.90
2022-09-14T16:53:02.118Z,20.40
2022-09-14T16:58:05.372Z,20.20
2022-09-14T17:03:08.598Z,20.10
2022-09-14T17:08:13.203Z,19.90
2022-09-14T17:13:16.423Z,19.80
2022-09-14T17:18:19.794Z,19.60
2022-09-14T17:23:24.594Z,19.50
2022-09-14T17:28:29.339Z,19.50
2022-09-14T17:33:34.380Z,19.30
2022-09-14T17:38:41.085Z,19.10
2022-09-14T17:43:44.847Z,19.10
2022-09-14T17:48:48.332Z,19.10
2022-09-14T17:53:55.316Z,18.60
2022-09-14T17:59:02.766Z,18.40
2022-09-14T18:04:07.812Z,18.40
2022-09-14T18:09:15.454Z,18.30
2022-09-14T18:14:19.016Z,18.30
2022-09-14T18:19:22.492Z,18.30
2022-09-14T18:24:27.180Z,18.20
2022-09-14T18:29:31.620Z,18.10
2022-09-14T18:34:35.300Z,18.00
2022-09-14T18:39:40.063Z,18.10
2022-09-14T18:44:43.297Z,18.10
2022-09-14T18:49:46.790Z,17.00
2022-09-14T18:54:51.414Z,17.90
2022-09-14T18:59:54.758Z,18.10
2022-09-14T19:04:58.491Z,18.00
2022-09-14T19:10:03.229Z,18.00
2022-09-14T19:15:07.784Z,18.10
2022-09-14T19:20:11.713Z,18.10
2022-09-14T19:25:16.400Z,18.20
2022-09-14T19:30:19.782Z,18.30
2022-09-14T19:35:23.499Z,18.30
2022-09-14T19:40:28.209Z,18.30
2022-09-14T19:45:31.814Z,18.40
2022-09-14T19:50:36.958Z,22.70
2022-09-14T19:55:41.750Z,18.40
2022-09-14T20:00:45.240Z,18.50
2022-09-14T20:05:48.470Z,18.50
2022-09-14T20:10:53.123Z,18.50
2022-09-14T20:15:56.446Z,18.50
2022-09-14T20:20:59.738Z,18.50
2022-09-14T20:26:05.709Z,18.40
2022-09-14T20:31:12.169Z,18.30
2022-09-14T20:36:17.487Z,18.30
2022-09-14T20:41:23.848Z,18.10
2022-09-14T20:46:36.082Z,18.00
2022-09-14T20:51:40.253Z,17.90
2022-09-14T20:56:46.095Z,17.80
2022-09-14T21:01:50.805Z,17.70
2022-09-14T21:06:55.769Z,17.60
2022-09-14T21:12:00.617Z,17.50
2022-09-14T21:17:03.924Z,17.50
2022-09-14T21:22:07.869Z,17.40
2022-09-14T21:27:12.495Z,17.30
2022-09-14T21:32:15.748Z,17.30
2022-09-14T21:37:18.997Z,17.30
2022-09-14T21:42:23.666Z,17.20
2022-09-14T21:47:26.900Z,17.20
2022-09-14T21:52:30.203Z,17.10
2022-09-14T21:57:34.780Z,17.10
2022-09-14T22:02:38.163Z,17.10
2022-09-14T22:07:42.169Z,17.20
2022-09-14T22:12:47.876Z,17.20
2022-09-14T22:17:51.285Z,17.10
2022-09-14T22:22:54.614Z,17.10
2022-09-14T22:27:59.209Z,17.10
2022-09-14T22:33:02.442Z,17.20
2022-09-14T22:38:07.462Z,17.20
2022-09-14T22:43:12.133Z,17.30
2022-09-14T22:48:15.636Z,17.30
2022-09-14T22:53:20.079Z,17.30
2022-09-14T22:58:26.832Z,17.20
2022-09-14T23:03:30.062Z,17.10
2022-09-14T23:08:35.225Z,17.10
2022-09-14T23:13:41.297Z,17.10
2022-09-14T23:18:45.665Z,17.10
2022-09-14T23:23:52.279Z,17.00
2022-09-14T23:28:58.744Z,16.90
2022-09-14T23:34:03.401Z,16.80
2022-09-14T23:39:06.629Z,16.80
2022-09-14T23:44:12.751Z,16.70
2022-09-14T23:49:16.205Z,16.70
2022-09-14T23:54:19.544Z,16.70
2022-09-14T23:59:24.326Z,16.60
